^^

Weather Underground History

Daily Summary for August 23, 2019 Units:  Metric    English   Both
Daily Weekly Monthly Yearly Custom
  Current: High: Low: Average:
Temperature: 15.2 °C 16.4 °C 13.9 °C 15.5 °C
Dew Point: 14.2 °C 14.6 °C 12.5 °C 13.9 °C
Humidity: 93.9% 93.9% 87% 90%
Wind Speed: 0.9km/h 8.6km/h 0km/h 3km/h
Wind Gust: 4.8km/h 16.1km/h - -
WindSSW - - SW
Pressure: 1023.3 hPa 1023.3 hPa 1022.5 hPa -
Precipitation: 0.0 mm      
Historical Graphs
 
 
Tabular Data for August 23, 2019
Time Temperature Dew Point Pressure Wind Wind Speed Wind Gust Humidity Rainfall Rate (Hourly) solar
00:04 16.2 °C 14 °C 1022.5 hPa SW 4.7 km/h 9.7 km/h 87% 0.0 mm 0 W/m2
00:09 16.2 °C 14.1 °C 1022.5 hPa SW 6.4 km/h 11.3 km/h 87.5% 0.0 mm 0 W/m2
00:14 16.2 °C 14.2 °C 1022.5 hPa SW 6.1 km/h 11.3 km/h 88% 0.0 mm 0 W/m2
00:19 16.2 °C 14.2 °C 1022.5 hPa SW 4.5 km/h 11.3 km/h 88% 0.0 mm 0 W/m2
00:24 16.2 °C 14.2 °C 1022.5 hPa SW 5.4 km/h 9.7 km/h 88% 0.0 mm 0 W/m2
00:29 16.2 °C 14.2 °C 1022.5 hPa SW 6.6 km/h 12.9 km/h 88% 0.0 mm 0 W/m2
00:34 16.2 °C 14.2 °C 1022.5 hPa WSW 3.6 km/h 12.9 km/h 88% 0.0 mm 0 W/m2
00:39 16.1 °C 14.1 °C 1022.5 hPa WSW 2.9 km/h 9.7 km/h 88% 0.0 mm 0 W/m2
00:44 16.1 °C 14.1 °C 1022.5 hPa SSW 2.1 km/h 9.7 km/h 88% 0.0 mm 0 W/m2
00:49 16.1 °C 14.3 °C 1022.5 hPa Calm   4.8 km/h 89% 0.0 mm 0 W/m2
00:54 16.1 °C 14.3 °C 1022.5 hPa Calm     89% 0.0 mm 0 W/m2
00:59 16.2 °C 14.4 °C 1022.5 hPa SW 1.8 km/h 8 km/h 89% 0.0 mm 0 W/m2
01:04 16.2 °C 14.4 °C 1022.5 hPa SW 0.6 km/h 9.7 km/h 89% 0.0 mm 0 W/m2
01:09 16.2 °C 14.4 °C 1022.5 hPa SW 0.9 km/h 9.7 km/h 89% 0.0 mm 0 W/m2
01:14 16.2 °C 14.4 °C 1022.5 hPa SW 4.8 km/h 8 km/h 89% 0.0 mm 0 W/m2
01:19 16.2 °C 14.4 °C 1022.5 hPa SW 5.5 km/h 11.3 km/h 89% 0.0 mm 0 W/m2
01:24 16.2 °C 14.4 °C 1022.6 hPa SW 4.7 km/h 11.3 km/h 89% 0.0 mm 0 W/m2
01:29 16.2 °C 14.4 °C 1022.6 hPa SW 6.4 km/h 11.3 km/h 89% 0.0 mm 0 W/m2
01:34 16.3 °C 14.4 °C 1022.7 hPa SW 8.2 km/h 14.5 km/h 89% 0.0 mm 0 W/m2
01:39 16.3 °C 14.5 °C 1022.6 hPa SW 6.5 km/h 14.5 km/h 89% 0.0 mm 0 W/m2
01:44 16.3 °C 14.5 °C 1022.6 hPa SW 6.7 km/h 11.3 km/h 89% 0.0 mm 0 W/m2
01:49 16.4 °C 14.5 °C 1022.6 hPa SW 7.1 km/h 11.3 km/h 89% 0.0 mm 0 W/m2
01:54 16.4 °C 14.5 °C 1022.6 hPa SW 6.6 km/h 11.3 km/h 89% 0.0 mm 0 W/m2
01:59 16.3 °C 14.5 °C 1022.5 hPa WSW 6.7 km/h 11.3 km/h 89% 0.0 mm 0 W/m2
02:04 16.3 °C 14.5 °C 1022.5 hPa SW 6.8 km/h 12.9 km/h 89% 0.0 mm 0 W/m2
02:09 16.3 °C 14.5 °C 1022.6 hPa WSW 6.3 km/h 11.3 km/h 89% 0.0 mm 0 W/m2
02:14 16.3 °C 14.4 °C 1022.6 hPa WSW 8.6 km/h 16.1 km/h 89% 0.0 mm 0 W/m2
02:19 16.2 °C 14.4 °C 1022.6 hPa SW 8.5 km/h 12.9 km/h 89% 0.0 mm 0 W/m2
02:24 16.2 °C 14.4 °C 1022.6 hPa SW 8.4 km/h 14.5 km/h 89% 0.0 mm 0 W/m2
02:29 16.2 °C 14.4 °C 1022.6 hPa SW 8.4 km/h 14.5 km/h 89% 0.0 mm 0 W/m2
02:34 16.1 °C 14.3 °C 1022.6 hPa SW 7.6 km/h 12.9 km/h 89% 0.0 mm 0 W/m2
02:39 16.1 °C 14.3 °C 1022.5 hPa SW 7.2 km/h 12.9 km/h 89% 0.0 mm 0 W/m2
02:44 16.1 °C 14.3 °C 1022.5 hPa SW 7.9 km/h 12.9 km/h 89.1% 0.0 mm 0 W/m2
02:49 16.1 °C 14.5 °C 1022.5 hPa SW 8.6 km/h 12.9 km/h 90% 0.0 mm 0 W/m2
02:54 16.1 °C 14.5 °C 1022.5 hPa SW 7.7 km/h 12.9 km/h 90% 0.0 mm 0 W/m2
02:59 16.1 °C 14.5 °C 1022.5 hPa SSW 7.4 km/h 14.5 km/h 90% 0.0 mm 0 W/m2
03:04 16.1 °C 14.5 °C 1022.5 hPa SW 6.4 km/h 11.3 km/h 90% 0.0 mm 0 W/m2
03:09 16.2 °C 14.5 °C 1022.5 hPa SW 5.8 km/h 12.9 km/h 90% 0.0 mm 0 W/m2
03:14 16.2 °C 14.5 °C 1022.6 hPa SW 5.6 km/h 11.3 km/h 90% 0.0 mm 0 W/m2
03:19 16.2 °C 14.5 °C 1022.7 hPa SW 5.5 km/h 11.3 km/h 90% 0.0 mm 0 W/m2
03:24 16.2 °C 14.6 °C 1022.7 hPa SW 3.2 km/h 14.5 km/h 90% 0.0 mm 0 W/m2
03:29 16.2 °C 14.6 °C 1022.8 hPa SW 5 km/h 9.7 km/h 90% 0.0 mm 0 W/m2
03:34 16.2 °C 14.6 °C 1022.8 hPa SW 3.4 km/h 9.7 km/h 90% 0.0 mm 0 W/m2
03:39 16.2 °C 14.6 °C 1022.7 hPa SSW 4.4 km/h 9.7 km/h 90% 0.0 mm 0 W/m2
03:44 16.2 °C 14.6 °C 1022.8 hPa SW 3.7 km/h 8 km/h 90% 0.0 mm 0 W/m2
03:49 16.2 °C 14.6 °C 1022.8 hPa SW 0.1 km/h 6.4 km/h 90% 0.0 mm 0 W/m2
03:54 16.2 °C 14.5 °C 1022.8 hPa SSW 1.8 km/h 9.7 km/h 90% 0.0 mm 0 W/m2
03:59 16.1 °C 14.3 °C 1022.8 hPa SSW 1.9 km/h 9.7 km/h 89.1% 0.0 mm 0 W/m2
04:04 16 °C 14.2 °C 1022.8 hPa SSW 3.3 km/h 9.7 km/h 89% 0.0 mm 0 W/m2
04:09 15.9 °C 14.2 °C 1022.8 hPa SSW 3.7 km/h 12.9 km/h 89.3% 0.0 mm 0 W/m2
04:14 15.9 °C 14.2 °C 1022.8 hPa SSW 3.9 km/h 9.7 km/h 90% 0.0 mm 0 W/m2
04:19 15.8 °C 14.2 °C 1022.8 hPa SSW 3.2 km/h 8 km/h 90% 0.0 mm 0 W/m2
04:24 15.7 °C 14.1 °C 1022.7 hPa SSW 2.9 km/h 8 km/h 90% 0.0 mm 0 W/m2
04:29 15.6 °C 14 °C 1022.7 hPa SSW 0.1 km/h 6.4 km/h 90% 0.0 mm 0 W/m2
04:34 15.5 °C 13.9 °C 1022.8 hPa Calm     90% 0.0 mm 0 W/m2
04:39 15.4 °C 13.8 °C 1022.8 hPa SSW 0.3 km/h 4.8 km/h 90% 0.0 mm 0 W/m2
04:44 15.3 °C 13.7 °C 1022.8 hPa Calm     90% 0.0 mm 0 W/m2
04:49 15.3 °C 13.6 °C 1022.8 hPa SSW 1.7 km/h 6.4 km/h 90.1% 0.0 mm 0 W/m2
04:54 15.2 °C 13.7 °C 1022.8 hPa SSW 0.3 km/h 6.4 km/h 91% 0.0 mm 0 W/m2
04:59 15.1 °C 13.6 °C 1022.8 hPa Calm     90.8% 0.0 mm 0 W/m2
05:04 15 °C 13.5 °C 1022.9 hPa Calm     91% 0.0 mm 0 W/m2
05:09 14.9 °C 13.4 °C 1022.9 hPa Calm     91% 0.0 mm 0 W/m2
05:14 14.8 °C 13.3 °C 1022.9 hPa Calm     91% 0.0 mm 0 W/m2
05:19 14.7 °C 13.3 °C 1022.8 hPa Calm     91% 0.0 mm 0 W/m2
05:24 14.6 °C 13.2 °C 1022.8 hPa Calm     91% 0.0 mm 0 W/m2
05:29 14.4 °C 13 °C 1022.9 hPa Calm     91% 0.0 mm 0 W/m2
05:34 14.3 °C 12.9 °C 1022.9 hPa Calm     91% 0.0 mm 0 W/m2
05:39 14.2 °C 12.8 °C 1022.9 hPa Calm     91% 0.0 mm 0 W/m2
05:44 14.1 °C 12.6 °C 1022.9 hPa Calm     91% 0.0 mm 0 W/m2
05:49 14 °C 12.5 °C 1022.9 hPa SSW 0.1 km/h 3.2 km/h 91% 0.0 mm 0 W/m2
05:54 13.9 °C 12.6 °C 1022.8 hPa SSW 0.2 km/h 4.8 km/h 91.3% 0.0 mm 0 W/m2
05:59 14 °C 12.7 °C 1022.8 hPa Calm     92% 0.0 mm 0 W/m2
06:04 14.1 °C 12.8 °C 1022.8 hPa Calm     92% 0.0 mm 5 W/m2
06:09 14.2 °C 12.9 °C 1022.8 hPa Calm     92% 0.0 mm 7 W/m2
06:14 14.3 °C 13.1 °C 1022.8 hPa SSW 0.8 km/h 4.8 km/h 92.9% 0.0 mm 11 W/m2
06:19 14.3 °C 13.2 °C 1022.9 hPa SSW 0.1 km/h 4.8 km/h 93% 0.0 mm 12 W/m2
06:24 14.3 °C 13.1 °C 1022.9 hPa Calm   3.2 km/h 93% 0.0 mm 14 W/m2
06:29 14.2 °C 12.9 °C 1023.0 hPa Calm     92.2% 0.0 mm 18 W/m2
06:34 14.2 °C 12.9 °C 1023.0 hPa Calm     92% 0.0 mm 28 W/m2
06:39 14.2 °C 13 °C 1023.0 hPa Calm     92.9% 0.0 mm 37 W/m2
06:44 14.2 °C 13.1 °C 1023.0 hPa Calm     93% 0.0 mm 47 W/m2
06:49 14.3 °C 13.2 °C 1023.1 hPa Calm     93% 0.0 mm 56 W/m2
06:54 14.4 °C 13.3 °C 1023.1 hPa Calm     93% 0.0 mm 69 W/m2
06:59 14.4 °C 13.3 °C 1023.1 hPa Calm     93% 0.0 mm 79 W/m2
07:04 14.5 °C 13.4 °C 1023.0 hPa Calm     93% 0.0 mm 88 W/m2
07:09 14.5 °C 13.4 °C 1023.1 hPa SSW 0.4 km/h 3.2 km/h 93% 0.0 mm 102 W/m2
07:14 14.6 °C 13.5 °C 1023.2 hPa SSW 1.3 km/h 4.8 km/h 93% 0.0 mm 111 W/m2
07:19 14.7 °C 13.6 °C 1023.2 hPa Calm     93% 0.0 mm 121 W/m2
07:24 14.8 °C 13.7 °C 1023.2 hPa SSW 1.6 km/h 6.4 km/h 93.4% 0.0 mm 134 W/m2
07:29 14.9 °C 13.9 °C 1023.2 hPa Calm   4.8 km/h 93.7% 0.0 mm 146 W/m2
07:34 15 °C 13.8 °C 1023.2 hPa SSW 1.2 km/h 6.4 km/h 93% 0.0 mm 158 W/m2
07:39 15 °C 13.9 °C 1023.3 hPa SSW 2.9 km/h 8 km/h 93% 0.0 mm 174 W/m2
07:44 15.1 °C 13.9 °C 1023.3 hPa SSW 1.3 km/h 8 km/h 93% 0.0 mm 188 W/m2
07:49 15.2 °C 14.2 °C 1023.3 hPa SSW 0.9 km/h 4.8 km/h 93.9% 0.0 mm 200 W/m2
Compliments of Weather Underground - 2.75 mb